createdAt,value
2016-12-06T00:00:13.054Z,0.55
2016-12-06T00:01:24.678Z,0.52
2016-12-06T00:02:35.892Z,0.48
2016-12-06T00:03:47.554Z,0.61
2016-12-06T00:04:59.226Z,0.52
2016-12-06T00:06:11.604Z,0.48
2016-12-06T00:07:22.852Z,0.52
2016-12-06T00:08:34.406Z,0.55
2016-12-06T00:09:46.449Z,0.58
2016-12-06T00:10:57.899Z,0.59
2016-12-06T00:12:09.650Z,0.48
2016-12-06T00:13:20.992Z,0.48
2016-12-06T00:14:47.141Z,0.45
2016-12-06T00:15:58.970Z,0.47
2016-12-06T00:17:10.373Z,0.47
2016-12-06T00:18:22.148Z,0.45
2016-12-06T00:19:33.587Z,0.42
2016-12-06T00:20:45.006Z,0.39
2016-12-06T00:21:56.996Z,0.42
2016-12-06T00:23:08.254Z,0.42
2016-12-06T00:24:20.298Z,0.48
2016-12-06T00:25:31.707Z,0.49
2016-12-06T00:26:43.120Z,0.49
2016-12-06T00:27:54.782Z,0.59
2016-12-06T00:29:06.734Z,0.4
2016-12-06T00:30:18.554Z,0.34
2016-12-06T00:31:30.474Z,0.39
2016-12-06T00:32:41.986Z,0.34
2016-12-06T00:33:53.718Z,0.36
2016-12-06T00:35:05.381Z,0.37
2016-12-06T00:36:16.643Z,0.48
2016-12-06T00:37:28.238Z,0.37
2016-12-06T00:38:40.059Z,0.33
2016-12-06T00:39:54.000Z,0.49
2016-12-06T00:41:05.410Z,0.51
2016-12-06T00:42:17.089Z,0.49
2016-12-06T00:43:28.622Z,0.42
2016-12-06T00:44:40.026Z,0.44
2016-12-06T00:45:51.867Z,0.39
2016-12-06T00:47:03.750Z,0.47
2016-12-06T00:48:15.113Z,0.39
2016-12-06T00:49:26.899Z,0.47
2016-12-06T00:50:38.822Z,0.48
2016-12-06T00:51:50.796Z,0.56
2016-12-06T00:53:02.197Z,0.42
2016-12-06T00:54:13.699Z,0.44
2016-12-06T00:55:25.177Z,0.4
2016-12-06T00:56:37.003Z,0.39
2016-12-06T00:57:48.648Z,0.49
2016-12-06T00:59:00.464Z,0.4
2016-12-06T01:00:12.065Z,0.42
2016-12-06T01:01:24.246Z,0.48
2016-12-06T01:02:35.752Z,0.37
2016-12-06T01:03:47.528Z,0.42
2016-12-06T01:04:59.584Z,0.33
2016-12-06T01:06:11.185Z,0.3
2016-12-06T01:07:22.652Z,0.37
2016-12-06T01:08:34.086Z,0.36
2016-12-06T01:09:45.808Z,0.3
2016-12-06T01:10:57.622Z,0.3
2016-12-06T01:12:09.086Z,0.48
2016-12-06T01:13:20.582Z,0.37
2016-12-06T01:14:32.021Z,0.4
2016-12-06T01:15:43.818Z,0.39
2016-12-06T01:16:55.198Z,0.4
2016-12-06T01:18:06.804Z,0.47
2016-12-06T01:19:18.493Z,0.48
2016-12-06T01:20:30.337Z,0.4
2016-12-06T01:21:42.076Z,0.47
2016-12-06T01:22:53.629Z,0.45
2016-12-06T01:24:05.258Z,0.45
2016-12-06T01:25:17.217Z,0.47
2016-12-06T01:26:28.815Z,0.42
2016-12-06T01:27:40.553Z,0.55
2016-12-06T01:28:51.794Z,0.47
2016-12-06T01:30:03.076Z,0.56
2016-12-06T01:31:15.059Z,0.48
2016-12-06T01:32:26.537Z,0.51
2016-12-06T01:33:38.080Z,0.45
2016-12-06T01:34:49.317Z,0.52
2016-12-06T01:36:00.775Z,0.56
2016-12-06T01:37:12.557Z,0.59
2016-12-06T01:38:23.987Z,0.52
2016-12-06T01:39:35.785Z,0.49
2016-12-06T01:40:47.630Z,0.49
2016-12-06T01:41:59.074Z,0.52
2016-12-06T01:43:10.871Z,0.45
2016-12-06T01:44:22.218Z,0.48
2016-12-06T01:45:33.873Z,0.4
2016-12-06T01:46:45.307Z,0.42
2016-12-06T01:47:56.768Z,0.31
2016-12-06T01:49:08.749Z,0.36
2016-12-06T01:50:20.179Z,0.34
2016-12-06T01:51:31.893Z,0.37
2016-12-06T01:52:43.329Z,0.45
2016-12-06T01:53:57.102Z,0.45
2016-12-06T01:55:08.487Z,0.55
2016-12-06T01:56:20.220Z,0.49
2016-12-06T01:57:31.765Z,0.47
2016-12-06T01:58:43.350Z,0.52
2016-12-06T01:59:54.657Z,0.59
2016-12-06T02:01:06.041Z,0.52
2016-12-06T02:02:17.861Z,0.47
2016-12-06T02:03:29.579Z,0.36
2016-12-06T02:04:40.844Z,0.44
2016-12-06T02:05:52.278Z,0.47
2016-12-06T02:07:03.778Z,0.49
2016-12-06T02:08:15.070Z,0.52
2016-12-06T02:09:26.920Z,0.44
2016-12-06T02:10:38.223Z,0.55
2016-12-06T02:11:49.663Z,0.4
2016-12-06T02:13:01.128Z,0.51
2016-12-06T02:14:12.785Z,0.4
2016-12-06T02:15:24.401Z,0.44
2016-12-06T02:16:36.128Z,0.3
2016-12-06T02:17:47.472Z,0.33
2016-12-06T02:18:58.916Z,0.3
2016-12-06T02:20:10.447Z,0.34
2016-12-06T02:21:22.068Z,0.36
2016-12-06T02:22:34.001Z,0.34
2016-12-06T02:23:45.953Z,0.24
2016-12-06T02:24:57.291Z,0.33
2016-12-06T02:26:09.015Z,0.37
2016-12-06T02:27:20.648Z,0.23
2016-12-06T02:28:32.044Z,0.26
2016-12-06T02:29:44.057Z,0.3
2016-12-06T02:30:55.835Z,0.23
2016-12-06T02:32:07.281Z,0.31
2016-12-06T02:33:19.279Z,0.13
2016-12-06T02:34:30.901Z,0.09
2016-12-06T02:35:43.273Z,0.06
2016-12-06T02:36:54.744Z,0.12
2016-12-06T02:38:06.769Z,0.12
2016-12-06T02:39:19.287Z,0.12
2016-12-06T02:40:31.666Z,0.27
2016-12-06T02:41:44.289Z,0.37
2016-12-06T02:42:57.149Z,0.33
2016-12-06T02:44:10.085Z,0.45
2016-12-06T02:45:24.261Z,0.51
2016-12-06T02:46:37.927Z,0.51
2016-12-06T02:47:50.219Z,0.47
2016-12-06T02:49:02.598Z,0.47
2016-12-06T02:50:15.047Z,0.48
2016-12-06T02:51:42.377Z,0.44
2016-12-06T02:52:56.170Z,0.47
2016-12-06T02:54:08.437Z,0.48
2016-12-06T02:55:20.820Z,0.39
2016-12-06T02:56:34.391Z,0.51
2016-12-06T02:57:47.495Z,0.36
2016-12-06T02:59:00.058Z,0.39
2016-12-06T03:00:11.531Z,0.45
2016-12-06T03:01:26.453Z,0.45
2016-12-06T03:02:41.720Z,0.31
2016-12-06T03:03:56.706Z,0.45
2016-12-06T03:05:09.590Z,0.49
2016-12-06T03:06:24.881Z,0.51
2016-12-06T03:07:39.954Z,0.49
2016-12-06T03:08:54.516Z,0.45
2016-12-06T03:10:06.604Z,0.42
2016-12-06T03:11:18.705Z,0.39
2016-12-06T03:12:31.091Z,0.39
2016-12-06T03:13:43.878Z,0.48
2016-12-06T03:14:58.695Z,0.42
2016-12-06T03:16:13.870Z,0.4
2016-12-06T03:17:25.578Z,0.44
2016-12-06T03:18:37.234Z,0.52
2016-12-06T03:21:15.493Z,0.49
2016-12-06T03:22:27.731Z,0.45
2016-12-06T03:23:40.770Z,0.47
2016-12-06T03:24:53.442Z,0.56
2016-12-06T03:26:05.930Z,0.49
2016-12-06T03:27:18.703Z,0.49
2016-12-06T03:28:32.897Z,0.52
2016-12-06T03:29:45.236Z,0.55
2016-12-06T03:30:58.866Z,0.45
2016-12-06T03:32:11.039Z,0.49
2016-12-06T03:33:28.711Z,0.48
2016-12-06T03:34:45.322Z,0.49
2016-12-06T03:36:02.211Z,0.51
2016-12-06T03:37:18.438Z,0.42
2016-12-06T03:38:36.525Z,0.48
2016-12-06T03:39:52.924Z,0.47
2016-12-06T03:41:09.018Z,0.55
2016-12-06T03:42:23.866Z,0.66
2016-12-06T03:43:39.198Z,0.59
2016-12-06T03:44:52.334Z,0.56
2016-12-06T03:46:09.163Z,0.51
2016-12-06T03:47:24.587Z,0.55
2016-12-06T03:48:42.198Z,0.48
2016-12-06T03:49:59.185Z,0.63
2016-12-06T03:51:14.945Z,0.59
2016-12-06T03:52:29.012Z,0.67
2016-12-06T03:53:43.493Z,0.67
2016-12-06T03:55:01.025Z,0.63
2016-12-06T03:56:18.754Z,0.63
2016-12-06T03:57:35.561Z,0.58
2016-12-06T03:58:53.695Z,0.61
2016-12-06T04:00:11.861Z,0.56
2016-12-06T04:01:31.895Z,0.49
2016-12-06T04:02:49.251Z,0.77
2016-12-06T04:04:05.688Z,0.73
2016-12-06T04:05:23.613Z,0.67
2016-12-06T04:06:40.344Z,0.61
2016-12-06T04:07:58.255Z,0.45
2016-12-06T04:09:14.547Z,0.48
2016-12-06T04:10:31.508Z,0.52
2016-12-06T04:11:48.011Z,0.45
2016-12-06T04:13:01.715Z,0.55
2016-12-06T04:14:13.508Z,0.63
2016-12-06T04:15:27.219Z,0.58
2016-12-06T04:16:45.173Z,0.56
2016-12-06T04:18:01.146Z,0.58
2016-12-06T04:19:33.464Z,0.64
2016-12-06T04:20:52.338Z,0.52
2016-12-06T04:22:11.394Z,0.47
2016-12-06T04:23:30.291Z,0.39
2016-12-06T04:24:48.050Z,0.4
2016-12-06T04:26:00.611Z,0.48
2016-12-06T04:27:14.621Z,0.48
2016-12-06T04:28:26.399Z,0.39
2016-12-06T04:29:38.093Z,0.36
2016-12-06T04:30:49.594Z,0.52
2016-12-06T04:32:01.477Z,0.55
2016-12-06T04:33:14.418Z,0.42
2016-12-06T04:34:27.392Z,0.59
2016-12-06T04:35:42.024Z,0.59
2016-12-06T04:36:59.240Z,0.4
2016-12-06T04:38:14.157Z,0.59
2016-12-06T04:39:27.270Z,0.47
2016-12-06T04:40:40.375Z,0.63
2016-12-06T04:41:52.458Z,0.64
2016-12-06T04:43:03.952Z,0.51
2016-12-06T04:44:16.435Z,0.56
2016-12-06T04:45:28.124Z,0.47
2016-12-06T04:46:39.910Z,0.52
2016-12-06T04:47:51.408Z,0.52
2016-12-06T04:49:03.496Z,0.59
2016-12-06T04:50:15.201Z,0.64
2016-12-06T04:51:28.185Z,0.56
2016-12-06T04:52:40.438Z,0.51
2016-12-06T04:53:52.540Z,0.51
2016-12-06T04:55:06.814Z,0.66
2016-12-06T04:56:23.761Z,0.48
2016-12-06T04:57:36.937Z,0.61
2016-12-06T04:58:48.547Z,0.59
2016-12-06T05:00:02.360Z,0.45
2016-12-06T05:01:20.170Z,0.56
2016-12-06T05:02:53.062Z,0.51
2016-12-06T05:04:09.873Z,0.63
2016-12-06T05:05:22.034Z,0.73
2016-12-06T05:06:34.704Z,0.84
2016-12-06T05:07:49.814Z,0.86
2016-12-06T05:09:04.736Z,0.88
2016-12-06T05:10:18.347Z,0.95
2016-12-06T05:11:32.598Z,1
2016-12-06T05:12:43.974Z,0.95
2016-12-06T05:13:55.873Z,0.85
2016-12-06T05:15:07.231Z,0.85
2016-12-06T05:16:18.851Z,0.81
2016-12-06T05:17:30.872Z,0.86
2016-12-06T05:18:45.320Z,0.78
2016-12-06T05:19:58.466Z,0.85
2016-12-06T05:21:12.100Z,0.85
2016-12-06T05:22:25.974Z,0.85
2016-12-06T05:23:41.262Z,0.78
2016-12-06T05:24:55.458Z,0.88
2016-12-06T05:26:09.610Z,0.77
2016-12-06T05:27:24.947Z,0.88
2016-12-06T05:28:36.856Z,0.86
2016-12-06T05:29:48.123Z,0.92
2016-12-06T05:30:59.736Z,1.03
2016-12-06T05:32:11.258Z,1.14
2016-12-06T05:33:22.845Z,1.2
2016-12-06T05:34:34.791Z,1.16
2016-12-06T05:35:46.793Z,1.12
2016-12-06T05:36:59.264Z,1.2
2016-12-06T05:38:10.857Z,1.21
2016-12-06T05:39:23.089Z,1.22
2016-12-06T05:40:35.728Z,1.22
2016-12-06T05:41:47.138Z,1.24
2016-12-06T05:43:01.241Z,1.13
2016-12-06T05:44:12.710Z,1.07
2016-12-06T05:45:24.018Z,1.14
2016-12-06T05:46:36.096Z,1.13
2016-12-06T05:47:48.414Z,1.06
2016-12-06T05:50:26.131Z,0.99
2016-12-06T05:51:37.625Z,0.88
2016-12-06T05:52:49.340Z,0.91
2016-12-06T05:54:01.064Z,1.02
2016-12-06T05:55:12.523Z,0.99
2016-12-06T05:56:24.105Z,0.96
2016-12-06T05:57:35.662Z,0.94
2016-12-06T05:58:47.798Z,0.96
2016-12-06T05:59:59.661Z,0.99
2016-12-06T06:01:11.312Z,0.92
2016-12-06T06:02:23.222Z,0.88
2016-12-06T06:03:35.738Z,0.99
2016-12-06T06:04:49.179Z,1
2016-12-06T06:06:01.264Z,0.95
2016-12-06T06:07:15.590Z,0.88
2016-12-06T06:08:29.837Z,0.94
2016-12-06T06:09:43.315Z,0.89
2016-12-06T06:10:56.148Z,0.94
2016-12-06T06:12:07.695Z,0.99
2016-12-06T06:13:19.180Z,0.92
2016-12-06T06:14:31.112Z,0.95
2016-12-06T06:15:43.538Z,0.91
2016-12-06T06:16:55.945Z,0.85
2016-12-06T06:18:07.563Z,0.89
2016-12-06T06:19:19.468Z,0.91
2016-12-06T06:20:31.762Z,0.94
2016-12-06T06:21:44.366Z,0.81
2016-12-06T06:22:56.982Z,0.92
2016-12-06T06:24:09.262Z,0.77
2016-12-06T06:25:23.874Z,0.78
2016-12-06T06:26:35.953Z,0.73
2016-12-06T06:27:49.347Z,0.84
2016-12-06T06:29:04.997Z,0.84
2016-12-06T06:30:18.986Z,1.04
2016-12-06T06:31:32.098Z,0.95
2016-12-06T06:32:46.173Z,0.96
2016-12-06T06:33:59.524Z,0.91
2016-12-06T06:35:11.605Z,0.94
2016-12-06T06:36:23.103Z,0.89
2016-12-06T06:37:36.366Z,0.95
2016-12-06T06:38:51.172Z,0.84
2016-12-06T06:40:06.628Z,0.86
2016-12-06T06:41:21.910Z,0.86
2016-12-06T06:42:38.235Z,0.84
2016-12-06T06:43:55.194Z,0.85
2016-12-06T06:45:09.562Z,0.88
2016-12-06T06:46:24.279Z,0.74
2016-12-06T06:47:50.925Z,0.86
2016-12-06T06:49:03.671Z,0.86
2016-12-06T06:50:15.532Z,0.85
2016-12-06T06:51:27.451Z,0.82
2016-12-06T06:52:39.099Z,0.77
2016-12-06T06:53:50.794Z,0.77
2016-12-06T06:55:02.221Z,0.78
2016-12-06T06:56:13.986Z,0.77
2016-12-06T06:57:25.522Z,0.76
2016-12-06T06:58:39.287Z,0.73
2016-12-06T06:59:51.153Z,0.77
2016-12-06T07:01:02.690Z,0.86
2016-12-06T07:02:14.428Z,0.85
2016-12-06T07:03:26.176Z,0.85
2016-12-06T07:04:37.859Z,0.78
2016-12-06T07:05:49.475Z,0.88
2016-12-06T07:07:00.756Z,0.88
2016-12-06T07:08:11.970Z,0.85
2016-12-06T07:09:23.448Z,0.76
2016-12-06T07:10:34.988Z,0.81
2016-12-06T07:11:46.617Z,0.81
2016-12-06T07:12:58.030Z,0.76
2016-12-06T07:14:10.318Z,0.73
2016-12-06T07:15:21.744Z,0.86
2016-12-06T07:16:33.426Z,0.85
2016-12-06T07:17:44.965Z,0.89
2016-12-06T07:18:57.118Z,0.95
2016-12-06T07:20:09.242Z,0.89
2016-12-06T07:21:21.035Z,0.85
2016-12-06T07:22:32.686Z,0.85
2016-12-06T07:23:44.351Z,0.73
2016-12-06T07:24:56.022Z,0.78
2016-12-06T07:26:08.150Z,0.73
2016-12-06T07:27:19.601Z,0.88
2016-12-06T07:28:31.335Z,0.88
2016-12-06T07:29:42.725Z,0.88
2016-12-06T07:30:54.141Z,0.84
2016-12-06T07:32:05.505Z,0.91
2016-12-06T07:33:17.445Z,0.95
2016-12-06T07:34:29.277Z,0.85
2016-12-06T07:35:40.673Z,0.94
2016-12-06T07:36:52.026Z,0.85
2016-12-06T07:38:03.539Z,0.84
2016-12-06T07:39:15.271Z,0.85
2016-12-06T07:40:27.023Z,0.89
2016-12-06T07:41:38.389Z,1
2016-12-06T07:42:49.808Z,0.95
2016-12-06T07:44:01.678Z,0.85
2016-12-06T07:45:13.604Z,1.02
2016-12-06T07:46:25.252Z,0.96
2016-12-06T07:47:36.615Z,0.99
2016-12-06T07:48:48.014Z,0.96
2016-12-06T07:49:59.363Z,1.02
2016-12-06T07:51:11.497Z,1.04
2016-12-06T07:52:23.368Z,0.95
2016-12-06T07:53:35.076Z,0.84
2016-12-06T07:54:46.412Z,1
2016-12-06T07:55:57.862Z,0.95
2016-12-06T07:57:09.542Z,0.88
2016-12-06T07:58:21.523Z,0.86
2016-12-06T07:59:32.994Z,0.85
2016-12-06T08:00:44.491Z,0.81
2016-12-06T08:01:55.891Z,0.88
2016-12-06T08:03:07.208Z,0.96
2016-12-06T08:04:18.898Z,0.81
2016-12-06T08:05:30.252Z,0.95
2016-12-06T08:06:42.152Z,0.91
2016-12-06T08:07:53.453Z,0.99
2016-12-06T08:09:05.289Z,0.96
2016-12-06T08:10:17.429Z,0.99
2016-12-06T08:11:28.887Z,0.91
2016-12-06T08:12:42.913Z,0.99
2016-12-06T08:13:54.522Z,0.96
2016-12-06T08:15:05.873Z,0.95
2016-12-06T08:16:17.399Z,1.12
2016-12-06T08:17:28.856Z,1.28
2016-12-06T08:18:40.667Z,1.6
2016-12-06T08:19:52.383Z,1.6
2016-12-06T08:21:04.137Z,1.46
2016-12-06T08:22:16.232Z,1.42
2016-12-06T08:23:27.791Z,1.34
2016-12-06T08:24:39.632Z,1.25
2016-12-06T08:25:51.191Z,1.3
2016-12-06T08:27:02.844Z,1.21
2016-12-06T08:28:15.180Z,1.22
2016-12-06T08:29:27.163Z,1.27
2016-12-06T08:30:38.732Z,1.5
2016-12-06T08:31:50.036Z,1.52
2016-12-06T08:33:01.410Z,1.61
2016-12-06T08:34:13.509Z,1.52
2016-12-06T08:35:25.108Z,1.56
2016-12-06T08:36:36.723Z,1.53
2016-12-06T08:37:48.243Z,1.45
2016-12-06T08:38:59.932Z,1.45
2016-12-06T08:40:11.822Z,1.34
2016-12-06T08:41:23.236Z,1.31
2016-12-06T08:42:35.391Z,1.25
2016-12-06T08:43:46.773Z,1.2
2016-12-06T08:44:58.257Z,1.2
2016-12-06T08:46:09.900Z,1.1
2016-12-06T08:47:21.509Z,1.1
2016-12-06T08:48:32.828Z,1.07
2016-12-06T08:49:44.364Z,1
2016-12-06T08:50:56.200Z,1
2016-12-06T08:52:07.815Z,0.86
2016-12-06T08:53:19.239Z,0.95
2016-12-06T08:54:30.446Z,0.91
2016-12-06T08:55:42.220Z,0.88
2016-12-06T08:56:53.891Z,1
2016-12-06T08:58:05.540Z,0.89
2016-12-06T08:59:17.010Z,0.99
2016-12-06T09:00:28.364Z,0.95
2016-12-06T09:01:40.345Z,0.85
2016-12-06T09:02:52.100Z,0.86
2016-12-06T09:04:03.877Z,0.7
2016-12-06T09:05:15.352Z,0.58
2016-12-06T09:06:26.895Z,0.7
2016-12-06T09:07:38.499Z,0.74
2016-12-06T09:08:49.821Z,0.73
2016-12-06T09:10:01.786Z,0.86
2016-12-06T09:11:13.656Z,0.85
2016-12-06T09:12:25.042Z,0.81
2016-12-06T09:13:36.477Z,0.89
2016-12-06T09:14:47.985Z,0.92
2016-12-06T09:15:59.973Z,0.99
2016-12-06T09:17:11.415Z,1.09
2016-12-06T09:18:22.918Z,1.13
2016-12-06T09:19:34.341Z,1.21
2016-12-06T09:20:45.636Z,1.25
2016-12-06T09:21:57.198Z,1.21
2016-12-06T09:23:08.473Z,1.12
2016-12-06T09:24:20.146Z,1.09
2016-12-06T09:25:31.581Z,1.06
2016-12-06T09:26:45.303Z,1.1
2016-12-06T09:27:57.001Z,1.09
2016-12-06T09:29:08.786Z,1.16
2016-12-06T09:30:20.187Z,1.18
2016-12-06T09:31:31.751Z,1.21
2016-12-06T09:32:42.958Z,1.22
2016-12-06T09:33:54.938Z,1.31
2016-12-06T09:35:06.637Z,1.24
2016-12-06T09:36:18.205Z,1.16
2016-12-06T09:37:29.424Z,1.06
2016-12-06T09:38:40.920Z,1.04
2016-12-06T09:39:53.057Z,1.1
2016-12-06T09:41:04.259Z,1.06
2016-12-06T09:42:15.917Z,1.09
2016-12-06T09:43:27.392Z,1.18
2016-12-06T09:44:38.816Z,1.18
2016-12-06T09:45:50.633Z,1.34
2016-12-06T09:47:02.597Z,1.32
2016-12-06T09:48:14.104Z,1.4
2016-12-06T09:49:25.868Z,1.4
2016-12-06T09:50:37.561Z,1.36
2016-12-06T09:51:49.137Z,1.4
2016-12-06T09:53:00.459Z,1.4
2016-12-06T09:54:11.835Z,1.45
2016-12-06T09:55:23.388Z,1.38
2016-12-06T09:56:49.412Z,1.36
2016-12-06T09:58:01.335Z,1.27
2016-12-06T09:59:27.444Z,1.27
2016-12-06T10:00:39.290Z,1.25
2016-12-06T10:01:50.897Z,1.3
2016-12-06T10:03:02.587Z,1.32
2016-12-06T10:04:14.147Z,1.32
2016-12-06T10:05:25.681Z,1.36
2016-12-06T10:06:37.339Z,1.4
2016-12-06T10:07:48.763Z,1.43
2016-12-06T10:09:00.307Z,1.32
2016-12-06T10:10:11.724Z,1.36
2016-12-06T10:11:23.201Z,1.32
2016-12-06T10:12:34.473Z,1.39
2016-12-06T10:14:00.885Z,1.39
2016-12-06T10:15:12.765Z,1.46
2016-12-06T10:16:24.398Z,1.58
2016-12-06T10:17:35.999Z,1.4
2016-12-06T10:18:47.253Z,1.56
2016-12-06T10:19:58.571Z,1.56
2016-12-06T10:21:10.986Z,1.61
2016-12-06T10:22:22.499Z,1.48
2016-12-06T10:23:34.510Z,1.6
2016-12-06T10:24:46.251Z,1.63
2016-12-06T10:25:57.968Z,1.53
2016-12-06T10:27:09.273Z,1.49
2016-12-06T10:28:21.331Z,1.66
2016-12-06T10:29:33.100Z,1.64
2016-12-06T10:30:44.586Z,1.52
2016-12-06T10:32:10.627Z,1.58
2016-12-06T10:33:21.855Z,1.61
2016-12-06T10:34:33.158Z,1.58
2016-12-06T10:35:45.135Z,1.56
2016-12-06T10:36:56.546Z,1.67
2016-12-06T10:38:08.134Z,1.67
2016-12-06T10:39:19.607Z,1.63
2016-12-06T10:40:31.221Z,1.58
2016-12-06T10:41:45.003Z,1.46
2016-12-06T10:42:56.663Z,1.49
2016-12-06T10:44:08.110Z,1.61
2016-12-06T10:45:20.337Z,1.67
2016-12-06T10:46:46.638Z,1.61
2016-12-06T10:47:58.724Z,1.61
2016-12-06T10:49:10.447Z,1.64
2016-12-06T10:50:22.232Z,1.68
2016-12-06T10:51:33.572Z,1.63
2016-12-06T10:52:44.974Z,1.56
2016-12-06T10:53:56.615Z,1.66
2016-12-06T10:55:08.113Z,1.58
2016-12-06T10:56:19.953Z,1.53
2016-12-06T10:57:31.375Z,1.57
2016-12-06T10:58:42.906Z,1.61
2016-12-06T10:59:54.774Z,1.57
2016-12-06T11:01:06.328Z,1.43
2016-12-06T11:02:18.083Z,1.48
2016-12-06T11:03:29.576Z,1.52
2016-12-06T11:04:41.126Z,1.49
2016-12-06T11:05:52.783Z,1.57
2016-12-06T11:07:04.053Z,1.56
2016-12-06T11:08:15.778Z,1.53
2016-12-06T11:09:27.072Z,1.57
2016-12-06T11:10:39.055Z,1.63
2016-12-06T11:11:50.836Z,1.66
2016-12-06T11:13:02.408Z,1.67
2016-12-06T11:14:13.897Z,1.76
2016-12-06T11:15:25.649Z,1.68
2016-12-06T11:16:37.184Z,1.84
2016-12-06T11:17:49.295Z,1.88
2016-12-06T11:19:00.774Z,1.95
2016-12-06T11:20:12.894Z,1.89
2016-12-06T11:21:24.701Z,1.92
2016-12-06T11:22:36.580Z,1.93
2016-12-06T11:23:48.272Z,1.92
2016-12-06T11:24:59.624Z,1.86
2016-12-06T11:26:11.413Z,1.82
2016-12-06T11:27:23.520Z,1.85
2016-12-06T11:28:34.822Z,1.85
2016-12-06T11:29:46.460Z,1.88
2016-12-06T11:30:57.920Z,1.84
2016-12-06T11:32:09.625Z,1.75
2016-12-06T11:33:21.318Z,1.74
2016-12-06T11:34:47.604Z,1.84
2016-12-06T11:35:59.524Z,1.64
2016-12-06T11:37:10.936Z,1.7
2016-12-06T11:38:22.576Z,1.67
2016-12-06T11:39:34.345Z,1.67
2016-12-06T11:40:46.265Z,1.74
2016-12-06T11:41:59.260Z,1.75
2016-12-06T11:43:11.090Z,1.78
2016-12-06T11:44:22.666Z,1.78
2016-12-06T11:45:34.457Z,1.64
2016-12-06T11:46:45.800Z,1.75
2016-12-06T11:47:57.854Z,1.66
2016-12-06T11:49:09.691Z,1.63
2016-12-06T11:50:21.523Z,2.12
2016-12-06T11:51:33.883Z,2.7
2016-12-06T11:52:45.385Z,2.9
2016-12-06T11:53:57.150Z,2.7
2016-12-06T11:55:08.441Z,2.55
2016-12-06T11:56:22.041Z,2.37
2016-12-06T11:57:33.953Z,2.34
2016-12-06T11:58:46.623Z,2.23
2016-12-06T11:59:58.292Z,2.05
2016-12-06T12:01:09.735Z,2.03
2016-12-06T12:02:21.115Z,1.85
2016-12-06T12:03:32.331Z,1.97
2016-12-06T12:04:43.944Z,2.05
2016-12-06T12:05:55.680Z,1.98
2016-12-06T12:07:07.245Z,1.84
2016-12-06T12:08:20.040Z,1.86
2016-12-06T12:09:31.483Z,1.88
2016-12-06T12:10:43.152Z,1.82
2016-12-06T12:11:55.158Z,1.79
2016-12-06T12:13:07.175Z,1.82
2016-12-06T12:14:18.870Z,1.76
2016-12-06T12:15:30.672Z,1.85
2016-12-06T12:16:42.435Z,1.88
2016-12-06T12:17:54.778Z,1.84
2016-12-06T12:19:07.020Z,1.93
2016-12-06T12:20:18.651Z,1.88
2016-12-06T12:21:30.399Z,1.88
2016-12-06T12:22:41.743Z,2.01
2016-12-06T12:23:53.228Z,2.04
2016-12-06T12:25:04.875Z,1.98
2016-12-06T12:26:16.396Z,1.86
2016-12-06T12:27:28.609Z,1.89
2016-12-06T12:28:40.334Z,1.85
2016-12-06T12:29:51.855Z,1.92
2016-12-06T12:31:03.673Z,1.88
2016-12-06T12:32:14.953Z,1.89
2016-12-06T12:33:26.430Z,1.88
2016-12-06T12:34:38.273Z,2.01
2016-12-06T12:35:50.046Z,2.01
2016-12-06T12:37:01.660Z,2.03
2016-12-06T12:38:13.158Z,2
2016-12-06T12:39:25.066Z,2.08
2016-12-06T12:40:36.335Z,2.01
2016-12-06T12:41:48.853Z,2.01
2016-12-06T12:43:00.338Z,2.04
2016-12-06T12:44:12.042Z,1.93
2016-12-06T12:45:23.384Z,2
2016-12-06T12:46:35.240Z,1.86
2016-12-06T12:47:46.945Z,1.89
2016-12-06T12:48:58.688Z,1.92
2016-12-06T12:50:10.478Z,1.84
2016-12-06T12:51:21.908Z,1.75
2016-12-06T12:52:33.283Z,1.67
2016-12-06T12:53:45.100Z,1.67
2016-12-06T12:54:57.314Z,1.64
2016-12-06T12:56:08.795Z,1.76
2016-12-06T12:57:20.164Z,1.71
2016-12-06T12:58:31.879Z,1.67
2016-12-06T12:59:43.549Z,1.64
2016-12-06T13:00:54.989Z,1.68
2016-12-06T13:02:06.335Z,1.81
2016-12-06T13:03:17.647Z,1.74
2016-12-06T13:04:28.970Z,1.76
2016-12-06T13:05:40.766Z,1.78
2016-12-06T13:06:52.691Z,1.82
2016-12-06T13:08:04.089Z,1.88
2016-12-06T13:09:15.558Z,1.88
2016-12-06T13:10:29.303Z,1.79
2016-12-06T13:11:40.822Z,1.78
2016-12-06T13:12:52.503Z,1.75
2016-12-06T13:14:04.089Z,1.78
2016-12-06T13:15:15.520Z,1.76
2016-12-06T13:16:27.066Z,1.75
2016-12-06T13:17:53.616Z,1.82
2016-12-06T13:19:05.674Z,1.82
2016-12-06T13:20:17.272Z,1.88
2016-12-06T13:21:29.385Z,1.86
2016-12-06T13:22:40.679Z,1.88
2016-12-06T13:23:52.393Z,1.93
2016-12-06T13:25:04.246Z,1.89
2016-12-06T13:26:15.709Z,1.84
2016-12-06T13:27:27.703Z,1.79
2016-12-06T13:28:39.397Z,1.7
2016-12-06T13:30:06.014Z,1.58
2016-12-06T13:31:17.653Z,1.6
2016-12-06T13:32:29.123Z,1.61
2016-12-06T13:33:41.214Z,1.64
2016-12-06T13:34:52.935Z,1.66
2016-12-06T13:36:05.308Z,1.68
2016-12-06T13:37:17.359Z,1.64
2016-12-06T13:38:29.202Z,1.66
2016-12-06T13:39:40.764Z,1.64
2016-12-06T13:40:52.007Z,1.66
2016-12-06T13:42:03.615Z,1.71
2016-12-06T13:43:15.227Z,1.66
2016-12-06T13:44:26.743Z,1.68
2016-12-06T13:45:38.208Z,1.66
2016-12-06T13:46:49.860Z,1.66
2016-12-06T13:48:01.817Z,1.58
2016-12-06T13:49:13.550Z,1.66
2016-12-06T13:50:24.964Z,1.66
2016-12-06T13:51:36.791Z,1.68
2016-12-06T13:52:48.285Z,1.79
2016-12-06T13:54:00.067Z,1.66
2016-12-06T13:55:11.344Z,1.78
2016-12-06T13:56:23.125Z,1.7
2016-12-06T13:57:34.946Z,1.7
2016-12-06T13:58:46.572Z,1.64
2016-12-06T13:59:58.501Z,1.71
2016-12-06T14:01:10.125Z,1.71
2016-12-06T14:02:21.415Z,1.63
2016-12-06T14:03:33.306Z,1.64
2016-12-06T14:04:45.371Z,1.49
2016-12-06T14:05:57.543Z,1.57
2016-12-06T14:07:09.440Z,1.5
2016-12-06T14:08:20.972Z,1.57
2016-12-06T14:09:32.494Z,1.67
2016-12-06T14:10:44.205Z,1.6
2016-12-06T14:11:56.383Z,1.63
2016-12-06T14:13:07.983Z,1.58
2016-12-06T14:14:19.484Z,1.49
2016-12-06T14:15:31.054Z,1.49
2016-12-06T14:16:42.950Z,1.45
2016-12-06T14:17:55.050Z,1.48
2016-12-06T14:19:07.195Z,1.38
2016-12-06T14:20:18.460Z,1.31
2016-12-06T14:21:30.266Z,1.38
2016-12-06T14:22:42.078Z,1.4
2016-12-06T14:23:53.686Z,1.4
2016-12-06T14:25:07.331Z,1.32
2016-12-06T14:26:18.777Z,1.28
2016-12-06T14:27:30.032Z,1.22
2016-12-06T14:28:41.431Z,1.28
2016-12-06T14:29:53.886Z,1.3
2016-12-06T14:31:05.456Z,1.32
2016-12-06T14:32:17.493Z,1.34
2016-12-06T14:33:28.854Z,1.3
2016-12-06T14:34:40.257Z,1.32
2016-12-06T14:35:51.859Z,1.31
2016-12-06T14:37:03.502Z,1.25
2016-12-06T14:38:15.417Z,1.22
2016-12-06T14:39:27.201Z,1.24
2016-12-06T14:40:39.345Z,1.18
2016-12-06T14:41:51.016Z,1.27
2016-12-06T14:43:02.251Z,1.16
2016-12-06T14:44:13.565Z,1.12
2016-12-06T14:45:24.885Z,1.12
2016-12-06T14:46:36.303Z,1.1
2016-12-06T14:47:48.249Z,1.13
2016-12-06T14:48:59.891Z,1.06
2016-12-06T14:50:11.506Z,1.1
2016-12-06T14:51:23.256Z,1.09
2016-12-06T14:52:34.824Z,1.4
2016-12-06T14:53:47.151Z,1.66
2016-12-06T14:54:58.671Z,1.6
2016-12-06T14:56:10.404Z,1.39
2016-12-06T14:57:21.846Z,1.34
2016-12-06T14:58:33.237Z,1.3
2016-12-06T14:59:45.245Z,1.25
2016-12-06T15:00:56.936Z,1.14
2016-12-06T15:02:08.608Z,0.95
2016-12-06T15:03:20.454Z,0.99
2016-12-06T15:04:33.889Z,1.04
2016-12-06T15:05:45.662Z,1.04
2016-12-06T15:06:57.389Z,1.04
2016-12-06T15:08:10.128Z,1.02
2016-12-06T15:09:21.871Z,1
2016-12-06T15:10:33.848Z,0.92
2016-12-06T15:11:45.585Z,0.85
2016-12-06T15:12:56.898Z,0.99
2016-12-06T15:14:08.275Z,1
2016-12-06T15:15:19.555Z,0.88
2016-12-06T15:16:31.082Z,0.78
2016-12-06T15:17:42.630Z,0.71
2016-12-06T15:18:54.116Z,0.82
2016-12-06T15:20:05.813Z,0.76
2016-12-06T15:21:17.397Z,0.67
2016-12-06T15:22:28.712Z,0.7
2016-12-06T15:23:40.352Z,0.67
2016-12-06T15:24:52.027Z,0.68
2016-12-06T15:26:03.384Z,0.67
2016-12-06T15:27:15.229Z,0.63
2016-12-06T15:28:26.584Z,0.56
2016-12-06T15:29:38.195Z,0.67
2016-12-06T15:30:50.064Z,0.56
2016-12-06T15:32:02.936Z,0.64
2016-12-06T15:33:14.312Z,0.49
2016-12-06T15:34:25.678Z,0.52
2016-12-06T15:35:37.288Z,0.67
2016-12-06T15:36:49.240Z,0.61
2016-12-06T15:38:00.623Z,0.56
2016-12-06T15:39:14.237Z,0.59
2016-12-06T15:40:25.899Z,0.44
2016-12-06T15:41:37.509Z,0.4
2016-12-06T15:42:49.659Z,0.42
2016-12-06T15:44:02.845Z,0.4
2016-12-06T15:45:15.060Z,0.34
2016-12-06T15:46:26.342Z,0.42
2016-12-06T15:47:38.037Z,0.45
2016-12-06T15:48:49.455Z,0.4
2016-12-06T15:50:01.351Z,0.45
2016-12-06T15:51:12.648Z,0.52
2016-12-06T15:52:23.978Z,0.52
2016-12-06T15:53:35.665Z,0.47
2016-12-06T15:54:49.518Z,0.52
2016-12-06T15:56:00.920Z,0.4
2016-12-06T15:57:12.733Z,0.37
2016-12-06T15:58:24.334Z,0.47
2016-12-06T15:59:35.929Z,0.45
2016-12-06T16:00:47.577Z,0.4
2016-12-06T16:01:58.978Z,0.34
2016-12-06T16:03:10.937Z,0.33
2016-12-06T16:04:22.676Z,0.31
2016-12-06T16:05:34.979Z,0.31
2016-12-06T16:06:47.785Z,0.39
2016-12-06T16:07:59.131Z,0.29
2016-12-06T16:09:10.726Z,0.12
2016-12-06T16:10:22.955Z,0.15